Terminal Aerodrome Forecast
Issued by NWS

Home | Current Version | Previous Version | Text Only | Print | Product List | Glossary On
Versions: 1 2 3 4 5 6 7 8 9 10 11 12 13
000
FTUS44 KBMX 272300
TAFEET
TAF
KEET 272320Z 2800/2824 21005KT P6SM SCT250
     FM281000 24004KT P6SM VCSH BKN030 BKN070
      TEMPO 2810/2813 4SM -SHRA BKN020
     FM281400 30010KT P6SM SCT030 BKN070
     FM282100 33010KT P6SM SKC=

USA.gov is the U.S. government's official web portal to all federal, state and local government web resources and services.